createdAt,value
2022-10-13T00:00:41.382Z,11.80
2022-10-13T00:03:11.626Z,11.70
2022-10-13T00:05:42.851Z,11.60
2022-10-13T00:08:11.551Z,11.50
2022-10-13T00:10:41.616Z,11.50
2022-10-13T00:13:10.196Z,11.60
2022-10-13T00:15:39.889Z,11.60
2022-10-13T00:18:08.631Z,11.60
2022-10-13T00:20:44.059Z,11.60
2022-10-13T00:23:13.978Z,11.60
2022-10-13T00:25:43.576Z,11.60
2022-10-13T00:28:13.731Z,11.60
2022-10-13T00:30:43.121Z,11.60
2022-10-13T00:33:13.130Z,11.60
2022-10-13T00:35:47.150Z,11.60
2022-10-13T00:38:16.579Z,11.50
2022-10-13T00:40:46.205Z,11.40
2022-10-13T00:43:19.090Z,11.50
2022-10-13T00:45:49.997Z,11.60
2022-10-13T00:48:20.182Z,11.60
2022-10-13T00:50:50.493Z,11.70
2022-10-13T00:53:21.799Z,11.70
2022-10-13T00:55:52.015Z,11.70
2022-10-13T00:58:23.121Z,11.70
2022-10-13T01:00:52.988Z,11.60
2022-10-13T01:03:21.780Z,11.60
2022-10-13T01:05:52.444Z,11.60
2022-10-13T01:08:22.214Z,11.60
2022-10-13T01:10:57.914Z,11.60
2022-10-13T01:13:35.701Z,11.60
2022-10-13T01:16:14.015Z,11.50
2022-10-13T01:18:51.513Z,11.40
2022-10-13T01:21:27.368Z,11.50
2022-10-13T01:24:29.427Z,11.50
2022-10-13T01:27:10.293Z,11.40
2022-10-13T01:30:05.327Z,11.40
2022-10-13T01:32:51.943Z,11.40
2022-10-13T01:35:26.174Z,11.40
2022-10-13T01:38:03.381Z,11.30
2022-10-13T01:40:38.185Z,11.30
2022-10-13T01:43:11.803Z,11.30
2022-10-13T01:45:47.539Z,11.40
2022-10-13T01:48:17.993Z,11.40
2022-10-13T01:50:46.694Z,11.40
2022-10-13T01:53:17.920Z,11.40
2022-10-13T01:55:53.841Z,11.30
2022-10-13T01:58:23.154Z,11.40
2022-10-13T02:01:04.535Z,11.40
2022-10-13T02:03:45.040Z,11.50
2022-10-13T02:06:22.065Z,11.50
2022-10-13T02:08:59.875Z,11.50
2022-10-13T02:11:29.727Z,11.50
2022-10-13T02:14:04.386Z,11.60
2022-10-13T02:16:37.902Z,11.50
2022-10-13T02:19:07.542Z,11.50
2022-10-13T02:21:37.138Z,11.50
2022-10-13T02:24:06.597Z,11.50
2022-10-13T02:26:36.162Z,11.50
2022-10-13T02:29:10.668Z,11.50
2022-10-13T02:31:41.292Z,11.50
2022-10-13T02:34:09.394Z,11.50
2022-10-13T02:36:39.124Z,11.50
2022-10-13T02:39:08.402Z,11.50
2022-10-13T02:41:37.818Z,11.40
2022-10-13T02:44:07.050Z,11.40
2022-10-13T02:46:35.400Z,11.40
2022-10-13T02:49:04.944Z,11.30
2022-10-13T02:51:38.935Z,11.30
2022-10-13T02:54:08.170Z,11.40
2022-10-13T02:56:36.322Z,11.30
2022-10-13T02:59:04.946Z,11.30
2022-10-13T03:01:33.024Z,11.20
2022-10-13T03:04:01.165Z,11.00
2022-10-13T03:06:30.727Z,11.00
2022-10-13T03:08:59.288Z,11.00
2022-10-13T03:11:27.349Z,10.90
2022-10-13T03:13:55.477Z,11.00
2022-10-13T03:16:23.828Z,11.00
2022-10-13T03:18:51.895Z,11.00
2022-10-13T03:21:20.139Z,11.10
2022-10-13T03:23:49.628Z,11.20
2022-10-13T03:26:18.040Z,11.20
2022-10-13T03:28:50.528Z,11.20
2022-10-13T03:31:19.165Z,11.20
2022-10-13T03:33:48.014Z,11.20
2022-10-13T03:36:16.149Z,11.00
2022-10-13T03:38:44.390Z,11.10
2022-10-13T03:41:17.063Z,11.10
2022-10-13T03:43:46.203Z,11.00
2022-10-13T03:46:16.562Z,10.90
2022-10-13T03:48:45.024Z,10.90
2022-10-13T03:51:14.962Z,10.70
2022-10-13T03:53:47.121Z,10.60
2022-10-13T03:56:18.851Z,10.70
2022-10-13T03:58:47.416Z,10.70
2022-10-13T04:01:16.983Z,10.70
2022-10-13T04:03:45.225Z,10.80
2022-10-13T04:10:11.151Z,10.80
2022-10-13T04:12:55.909Z,10.80
2022-10-13T04:18:51.066Z,10.80
2022-10-13T04:21:27.168Z,10.80
2022-10-13T04:23:57.176Z,10.70
2022-10-13T04:26:26.843Z,10.60
2022-10-13T04:28:57.181Z,10.60
2022-10-13T04:31:25.735Z,10.60
2022-10-13T04:33:54.940Z,10.70
2022-10-13T04:36:23.086Z,10.70
2022-10-13T04:38:51.139Z,10.80
2022-10-13T04:41:20.421Z,10.70
2022-10-13T04:43:50.421Z,10.70
2022-10-13T04:46:23.001Z,10.70
2022-10-13T04:48:51.852Z,10.70
2022-10-13T04:51:22.288Z,10.60
2022-10-13T04:53:56.282Z,10.50
2022-10-13T04:56:25.393Z,10.60
2022-10-13T04:58:53.487Z,10.70
2022-10-13T05:01:26.357Z,10.80
2022-10-13T05:03:55.456Z,10.90
2022-10-13T05:06:25.621Z,10.80
2022-10-13T05:08:54.127Z,10.80
2022-10-13T05:11:22.362Z,10.90
2022-10-13T05:13:50.997Z,10.90
2022-10-13T05:16:21.188Z,10.80
2022-10-13T05:18:52.647Z,10.70
2022-10-13T05:21:23.087Z,10.60
2022-10-13T05:23:53.903Z,10.70
2022-10-13T05:26:36.920Z,10.70
2022-10-13T05:29:20.740Z,10.80
2022-10-13T05:31:57.995Z,10.80
2022-10-13T05:34:44.975Z,10.70
2022-10-13T05:37:31.537Z,10.80
2022-10-13T05:40:08.671Z,10.80
2022-10-13T05:42:41.912Z,10.70
2022-10-13T05:45:11.739Z,10.80
2022-10-13T05:47:39.841Z,10.80
2022-10-13T05:50:10.579Z,10.80
2022-10-13T05:52:39.366Z,10.80
2022-10-13T05:55:11.521Z,10.90
2022-10-13T05:57:43.729Z,10.90
2022-10-13T06:00:14.760Z,11.00
2022-10-13T06:02:46.095Z,11.00
2022-10-13T06:05:25.484Z,11.10
2022-10-13T06:07:54.885Z,11.00
2022-10-13T06:10:23.365Z,10.90
2022-10-13T06:12:51.560Z,10.80
2022-10-13T06:15:27.116Z,10.80
2022-10-13T06:17:59.942Z,10.80
2022-10-13T06:20:32.644Z,10.90
2022-10-13T06:28:49.809Z,11.10
2022-10-13T06:31:49.059Z,11.20
2022-10-13T06:34:38.454Z,11.20
2022-10-13T06:37:14.871Z,11.30
2022-10-13T06:39:58.451Z,11.30
2022-10-13T06:42:36.419Z,11.30
2022-10-13T06:45:26.283Z,11.30
2022-10-13T06:48:12.125Z,11.30
2022-10-13T06:50:43.037Z,11.40
2022-10-13T06:53:27.538Z,11.50
2022-10-13T06:56:45.285Z,11.50
2022-10-13T06:59:29.457Z,11.60
2022-10-13T07:02:01.601Z,11.60
2022-10-13T07:04:36.729Z,11.50
2022-10-13T07:07:04.910Z,11.50
2022-10-13T07:09:38.375Z,11.60
2022-10-13T07:12:07.747Z,11.60
2022-10-13T07:14:38.191Z,11.60
2022-10-13T07:17:09.528Z,11.60
2022-10-13T07:19:37.851Z,11.70
2022-10-13T07:22:06.446Z,11.60
2022-10-13T07:24:36.038Z,11.70
2022-10-13T07:27:07.639Z,11.70
2022-10-13T07:29:36.611Z,11.70
2022-10-13T07:32:04.826Z,11.80
2022-10-13T07:34:33.108Z,11.90
2022-10-13T07:37:28.443Z,11.90
2022-10-13T07:40:00.395Z,11.90
2022-10-13T07:42:29.244Z,12.00
2022-10-13T07:44:57.441Z,12.00
2022-10-13T07:47:26.707Z,12.00
2022-10-13T07:49:56.788Z,11.90
2022-10-13T07:52:25.096Z,11.90
2022-10-13T07:54:53.994Z,11.90
2022-10-13T07:57:26.863Z,11.90
2022-10-13T07:59:55.068Z,11.90
2022-10-13T08:02:27.706Z,11.80
2022-10-13T08:04:57.625Z,11.80
2022-10-13T08:07:27.782Z,11.80
2022-10-13T08:09:56.979Z,11.80
2022-10-13T08:12:27.994Z,11.80
2022-10-13T08:14:59.386Z,11.80
2022-10-13T08:17:30.341Z,11.70
2022-10-13T08:19:58.207Z,11.80
2022-10-13T08:22:28.390Z,11.80
2022-10-13T08:24:57.493Z,11.90
2022-10-13T08:27:42.181Z,11.90
2022-10-13T08:30:15.300Z,12.00
2022-10-13T08:32:43.692Z,12.00
2022-10-13T08:35:12.364Z,11.90
2022-10-13T08:37:40.888Z,12.00
2022-10-13T08:40:13.840Z,12.00
2022-10-13T08:42:45.763Z,12.00
2022-10-13T08:48:17.177Z,11.90
2022-10-13T08:50:50.727Z,12.00
2022-10-13T08:53:26.734Z,12.00
2022-10-13T08:55:59.787Z,12.00
2022-10-13T08:58:32.056Z,12.00
2022-10-13T09:01:11.355Z,11.90
2022-10-13T09:03:48.298Z,11.90
2022-10-13T09:06:21.663Z,11.80
2022-10-13T09:08:54.367Z,11.80
2022-10-13T09:11:22.939Z,11.80
2022-10-13T09:13:56.660Z,11.80
2022-10-13T09:16:30.269Z,11.90
2022-10-13T09:19:36.525Z,11.90
2022-10-13T09:22:21.248Z,11.80
2022-10-13T09:24:49.462Z,11.90
2022-10-13T09:27:18.757Z,12.00
2022-10-13T09:29:48.475Z,12.00
2022-10-13T09:32:21.104Z,12.00
2022-10-13T09:34:49.961Z,12.10
2022-10-13T09:37:21.003Z,11.90
2022-10-13T09:40:01.430Z,11.70
2022-10-13T09:42:31.837Z,11.80
2022-10-13T09:45:10.836Z,11.70
2022-10-13T09:47:39.977Z,11.70
2022-10-13T09:50:19.012Z,11.80
2022-10-13T09:52:48.703Z,11.90
2022-10-13T09:55:32.924Z,11.90
2022-10-13T09:58:06.820Z,11.90
2022-10-13T10:00:37.628Z,12.00
2022-10-13T10:03:12.018Z,12.10
2022-10-13T10:05:45.783Z,12.00
2022-10-13T10:08:18.188Z,12.00
2022-10-13T10:10:47.445Z,11.90
2022-10-13T10:13:16.640Z,11.90
2022-10-13T10:15:56.685Z,11.90
2022-10-13T10:18:33.206Z,11.90
2022-10-13T10:21:10.842Z,11.90
2022-10-13T10:23:47.330Z,12.00
2022-10-13T10:26:24.301Z,12.00
2022-10-13T10:29:15.258Z,12.00
2022-10-13T10:31:55.279Z,12.00
2022-10-13T10:34:32.147Z,11.90
2022-10-13T10:37:13.915Z,11.90
2022-10-13T10:39:48.473Z,11.90
2022-10-13T10:42:52.203Z,11.90
2022-10-13T10:45:24.475Z,11.90
2022-10-13T10:47:57.826Z,12.00
2022-10-13T10:50:27.601Z,12.00
2022-10-13T10:53:02.864Z,12.00
2022-10-13T10:55:36.403Z,12.10
2022-10-13T10:58:15.917Z,12.10
2022-10-13T11:00:53.014Z,12.10
2022-10-13T11:03:32.366Z,12.20
2022-10-13T11:06:02.939Z,12.30
2022-10-13T11:08:40.023Z,12.40
2022-10-13T11:11:37.246Z,12.60
2022-10-13T11:14:30.245Z,12.70
2022-10-13T11:17:16.030Z,12.80
2022-10-13T11:19:46.235Z,12.90
2022-10-13T11:22:19.635Z,13.00
2022-10-13T11:24:59.383Z,13.10
2022-10-13T11:27:42.034Z,13.20
2022-10-13T11:30:43.569Z,13.20
2022-10-13T11:33:35.020Z,13.20
2022-10-13T11:36:39.508Z,13.30
2022-10-13T11:39:39.627Z,13.40
2022-10-13T11:42:22.369Z,13.40
2022-10-13T11:44:55.465Z,13.30
2022-10-13T11:47:49.599Z,13.40
2022-10-13T11:50:26.229Z,13.40
2022-10-13T11:53:18.727Z,13.50
2022-10-13T11:55:51.292Z,13.50
2022-10-13T11:58:23.091Z,13.50
2022-10-13T12:00:56.339Z,13.60
2022-10-13T12:03:27.744Z,13.50
2022-10-13T12:05:58.872Z,13.40
2022-10-13T12:08:29.486Z,13.40
2022-10-13T12:11:00.118Z,13.50
2022-10-13T12:13:30.407Z,13.50
2022-10-13T12:16:01.025Z,13.50
2022-10-13T12:18:34.256Z,13.60
2022-10-13T12:21:04.638Z,13.60
2022-10-13T12:23:34.136Z,13.50
2022-10-13T12:26:02.447Z,13.50
2022-10-13T12:28:31.811Z,13.60
2022-10-13T12:31:01.037Z,13.60
2022-10-13T12:33:31.474Z,13.60
2022-10-13T12:36:13.973Z,13.60
2022-10-13T12:38:48.506Z,13.70
2022-10-13T12:41:20.094Z,13.70
2022-10-13T12:43:48.290Z,13.70
2022-10-13T12:46:37.407Z,13.70
2022-10-13T12:49:06.428Z,13.70
2022-10-13T12:51:35.567Z,13.70
2022-10-13T12:54:10.645Z,13.80
2022-10-13T12:56:38.735Z,13.80
2022-10-13T12:59:07.127Z,13.90
2022-10-13T13:01:38.343Z,14.00
2022-10-13T13:04:19.098Z,14.00
2022-10-13T13:06:55.542Z,14.00
2022-10-13T13:09:38.847Z,13.90
2022-10-13T13:12:24.961Z,13.90
2022-10-13T13:14:55.399Z,13.90
2022-10-13T13:17:52.866Z,13.90
2022-10-13T13:20:23.234Z,13.90
2022-10-13T13:22:51.990Z,13.90
2022-10-13T13:25:21.696Z,14.00
2022-10-13T13:27:50.182Z,14.00
2022-10-13T13:30:19.855Z,14.00
2022-10-13T13:32:49.643Z,14.00
2022-10-13T13:35:17.914Z,13.90
2022-10-13T13:37:49.835Z,13.90
2022-10-13T13:40:21.857Z,13.90
2022-10-13T13:42:50.052Z,14.00
2022-10-13T13:45:20.504Z,14.00
2022-10-13T13:47:48.894Z,14.00
2022-10-13T13:50:19.950Z,14.10
2022-10-13T13:52:47.926Z,14.10
2022-10-13T13:55:16.625Z,14.10
2022-10-13T13:57:46.661Z,14.10
2022-10-13T14:00:16.462Z,14.10
2022-10-13T14:02:47.239Z,14.10
2022-10-13T14:05:20.433Z,14.00
2022-10-13T14:07:51.531Z,14.00
2022-10-13T14:10:25.150Z,14.00
2022-10-13T14:12:57.556Z,14.00
2022-10-13T14:15:29.895Z,14.00
2022-10-13T14:18:01.981Z,13.90
2022-10-13T14:20:32.766Z,14.00
2022-10-13T14:23:04.728Z,14.00
2022-10-13T14:25:35.214Z,13.90
2022-10-13T14:28:07.830Z,13.90
2022-10-13T14:30:38.099Z,13.90
2022-10-13T14:33:08.158Z,13.90
2022-10-13T14:35:39.891Z,13.90
2022-10-13T14:38:12.889Z,13.90
2022-10-13T14:40:44.292Z,13.90
2022-10-13T14:43:16.603Z,13.90
2022-10-13T14:45:46.359Z,13.90
2022-10-13T14:48:18.007Z,13.90
2022-10-13T14:50:50.821Z,13.90
2022-10-13T14:53:18.807Z,14.00
2022-10-13T14:55:48.224Z,14.00
2022-10-13T14:58:17.582Z,14.00
2022-10-13T15:00:45.642Z,14.00
2022-10-13T15:03:15.129Z,14.00
2022-10-13T15:05:43.328Z,14.00
2022-10-13T15:08:11.674Z,14.00
2022-10-13T15:10:39.529Z,14.00
2022-10-13T15:13:07.774Z,13.90
2022-10-13T15:15:39.536Z,13.90
2022-10-13T15:18:08.646Z,14.00
2022-10-13T15:20:39.698Z,14.00
2022-10-13T15:23:07.863Z,14.00
2022-10-13T15:25:35.936Z,14.00
2022-10-13T15:28:04.114Z,14.00
2022-10-13T15:30:35.976Z,13.90
2022-10-13T15:33:05.861Z,13.90
2022-10-13T15:35:37.732Z,13.90
2022-10-13T15:38:05.931Z,13.90
2022-10-13T15:40:35.843Z,13.90
2022-10-13T15:43:04.191Z,13.90
2022-10-13T15:45:32.694Z,13.90
2022-10-13T15:48:00.902Z,13.90
2022-10-13T15:50:30.767Z,13.90
2022-10-13T15:53:01.670Z,13.90
2022-10-13T15:55:33.449Z,13.90
2022-10-13T15:58:02.009Z,13.90
2022-10-13T16:00:30.299Z,13.90
2022-10-13T16:02:58.425Z,13.90
2022-10-13T16:05:26.557Z,13.90
2022-10-13T16:07:56.293Z,13.90
2022-10-13T16:10:26.207Z,13.80
2022-10-13T16:12:54.280Z,13.80
2022-10-13T16:15:22.413Z,13.80
2022-10-13T16:17:53.309Z,13.80
2022-10-13T16:23:34.498Z,13.80
2022-10-13T16:26:03.324Z,13.80
2022-10-13T16:28:31.676Z,13.70
2022-10-13T16:31:04.837Z,13.70
2022-10-13T16:33:36.612Z,13.70
2022-10-13T16:36:05.623Z,13.70
2022-10-13T16:38:35.935Z,13.70
2022-10-13T16:41:05.217Z,13.60
2022-10-13T16:43:33.447Z,13.60
2022-10-13T16:46:03.623Z,13.60
2022-10-13T16:48:33.409Z,13.70
2022-10-13T16:51:06.516Z,13.70
2022-10-13T16:53:36.174Z,13.60
2022-10-13T16:56:06.772Z,13.70
2022-10-13T16:58:35.583Z,13.70
2022-10-13T17:01:05.846Z,13.70
2022-10-13T17:03:34.086Z,13.70
2022-10-13T17:06:02.199Z,13.70
2022-10-13T17:08:30.262Z,13.70
2022-10-13T17:11:00.785Z,13.70
2022-10-13T17:13:33.735Z,13.70
2022-10-13T17:16:05.049Z,13.70
2022-10-13T17:18:35.176Z,13.70
2022-10-13T17:21:05.978Z,13.70
2022-10-13T17:23:34.093Z,13.60
2022-10-13T17:26:06.373Z,13.60
2022-10-13T17:28:34.716Z,13.60
2022-10-13T17:31:05.214Z,13.60
2022-10-13T17:33:35.840Z,13.60
2022-10-13T17:36:06.209Z,13.60
2022-10-13T17:38:34.986Z,13.60
2022-10-13T17:41:06.171Z,13.50
2022-10-13T17:43:35.768Z,13.50
2022-10-13T17:46:35.060Z,13.50
2022-10-13T17:49:01.740Z,13.50
2022-10-13T17:51:29.904Z,13.50
2022-10-13T17:54:00.299Z,13.50
2022-10-13T17:56:30.589Z,13.50
2022-10-13T17:59:00.045Z,13.50
2022-10-13T18:01:30.291Z,13.50
2022-10-13T18:04:00.397Z,13.50
2022-10-13T18:06:35.153Z,13.50
2022-10-13T18:09:06.317Z,13.50
2022-10-13T18:11:36.434Z,13.60
2022-10-13T18:14:05.188Z,13.50
2022-10-13T18:16:33.803Z,13.50
2022-10-13T18:19:02.764Z,13.50
2022-10-13T18:21:30.875Z,13.50
2022-10-13T18:24:01.229Z,13.50
2022-10-13T18:26:35.040Z,13.50
2022-10-13T18:29:06.821Z,13.50
2022-10-13T18:31:37.433Z,13.50
2022-10-13T18:34:07.600Z,13.50
2022-10-13T18:36:37.790Z,13.50
2022-10-13T18:39:08.641Z,13.50
2022-10-13T18:41:38.093Z,13.50
2022-10-13T18:44:08.928Z,13.50
2022-10-13T18:46:38.461Z,13.50
2022-10-13T18:49:09.237Z,13.50
2022-10-13T18:51:37.763Z,13.50
2022-10-13T18:54:06.710Z,13.40
2022-10-13T18:56:36.883Z,13.40
2022-10-13T18:59:08.987Z,13.40
2022-10-13T19:01:39.375Z,13.40
2022-10-13T19:04:08.676Z,13.50
2022-10-13T19:06:37.009Z,13.40
2022-10-13T19:09:09.708Z,13.50
2022-10-13T19:11:38.719Z,13.50
2022-10-13T19:14:12.069Z,13.50
2022-10-13T19:16:41.939Z,13.50
2022-10-13T19:19:10.375Z,13.50
2022-10-13T19:21:39.274Z,13.50
2022-10-13T19:24:08.119Z,13.50
2022-10-13T19:26:37.326Z,13.50
2022-10-13T19:29:09.166Z,13.50
2022-10-13T19:31:38.609Z,13.50
2022-10-13T19:34:07.032Z,13.50
2022-10-13T19:36:37.517Z,13.50
2022-10-13T19:39:10.832Z,13.50
2022-10-13T19:41:40.336Z,13.50
2022-10-13T19:44:11.046Z,13.50
2022-10-13T19:46:39.685Z,13.60
2022-10-13T19:49:08.001Z,13.50
2022-10-13T19:51:38.318Z,13.50
2022-10-13T19:54:06.820Z,13.50
2022-10-13T19:56:34.971Z,13.40
2022-10-13T19:59:05.502Z,13.40
2022-10-13T20:01:39.809Z,13.30
2022-10-13T20:04:08.251Z,13.30
2022-10-13T20:06:36.765Z,13.30
2022-10-13T20:09:05.415Z,13.30
2022-10-13T20:11:33.978Z,13.30
2022-10-13T20:14:02.193Z,13.20
2022-10-13T20:16:30.807Z,13.20
2022-10-13T20:19:01.674Z,13.20
2022-10-13T20:21:30.358Z,13.20
2022-10-13T20:23:58.769Z,13.10
2022-10-13T20:26:27.401Z,13.10
2022-10-13T20:28:55.838Z,13.10
2022-10-13T20:31:25.246Z,13.20
2022-10-13T20:33:56.063Z,13.10
2022-10-13T20:36:28.644Z,13.10
2022-10-13T20:38:57.040Z,13.10
2022-10-13T20:41:28.438Z,13.10
2022-10-13T20:43:58.394Z,13.10
2022-10-13T20:46:27.667Z,13.10
2022-10-13T20:49:13.439Z,13.10
2022-10-13T20:51:44.240Z,13.10
2022-10-13T20:54:14.587Z,13.10
2022-10-13T20:56:43.283Z,13.10
2022-10-13T20:59:14.580Z,13.10
2022-10-13T21:01:43.032Z,13.10
2022-10-13T21:04:11.278Z,13.10
2022-10-13T21:06:40.075Z,13.10
2022-10-13T21:09:10.270Z,13.20
2022-10-13T21:11:39.643Z,13.10
2022-10-13T21:14:09.795Z,13.10
2022-10-13T21:16:39.481Z,13.00
2022-10-13T21:19:08.882Z,13.00
2022-10-13T21:21:37.912Z,12.90
2022-10-13T21:24:08.295Z,12.90
2022-10-13T21:26:38.940Z,12.90
2022-10-13T21:29:07.317Z,12.80
2022-10-13T21:31:36.031Z,12.80
2022-10-13T21:34:04.539Z,12.80
2022-10-13T21:36:34.778Z,12.80
2022-10-13T21:39:05.271Z,12.80
2022-10-13T21:41:33.535Z,12.70
2022-10-13T21:44:03.773Z,12.70
2022-10-13T21:46:34.023Z,12.70
2022-10-13T21:49:04.079Z,12.70
2022-10-13T21:51:34.018Z,12.60
2022-10-13T21:54:04.125Z,12.70
2022-10-13T21:56:33.620Z,12.70
2022-10-13T21:59:03.804Z,12.70
2022-10-13T22:01:32.290Z,12.70
2022-10-13T22:04:04.731Z,12.80
2022-10-13T22:06:34.398Z,12.80
2022-10-13T22:09:05.114Z,12.80
2022-10-13T22:11:36.664Z,12.80
2022-10-13T22:14:07.302Z,12.80
2022-10-13T22:16:39.187Z,12.80
2022-10-13T22:19:08.213Z,12.80
2022-10-13T22:21:38.597Z,12.90
2022-10-13T22:24:09.607Z,12.90
2022-10-13T22:26:39.047Z,12.90
2022-10-13T22:29:10.102Z,12.90
2022-10-13T22:31:38.592Z,12.90
2022-10-13T22:34:07.051Z,12.90
2022-10-13T22:36:38.041Z,12.90
2022-10-13T22:39:07.913Z,13.00
2022-10-13T22:41:36.397Z,13.00
2022-10-13T22:44:05.100Z,13.10
2022-10-13T22:46:37.578Z,13.10
2022-10-13T22:49:06.486Z,13.10
2022-10-13T22:51:36.151Z,13.10
2022-10-13T22:54:05.593Z,13.10
2022-10-13T22:56:38.746Z,13.10
2022-10-13T22:59:09.096Z,13.00
2022-10-13T23:01:38.649Z,13.00
2022-10-13T23:04:07.805Z,13.00
2022-10-13T23:06:37.048Z,13.00
2022-10-13T23:09:07.906Z,13.00
2022-10-13T23:11:36.124Z,13.00
2022-10-13T23:14:04.342Z,13.00
2022-10-13T23:16:32.446Z,13.00
2022-10-13T23:19:02.206Z,13.00
2022-10-13T23:21:31.773Z,13.00
2022-10-13T23:24:01.620Z,13.00
2022-10-13T23:26:30.065Z,13.00
2022-10-13T23:28:59.447Z,13.00
2022-10-13T23:31:28.727Z,13.00
2022-10-13T23:33:57.171Z,13.00
2022-10-13T23:36:28.784Z,13.00
2022-10-13T23:38:58.273Z,13.00
2022-10-13T23:41:28.451Z,13.00
2022-10-13T23:43:57.028Z,13.10
2022-10-13T23:46:25.513Z,13.00
2022-10-13T23:48:53.609Z,13.10
2022-10-13T23:51:24.078Z,13.10
2022-10-13T23:53:54.000Z,13.10
2022-10-13T23:56:22.149Z,13.10
2022-10-13T23:58:50.811Z,13.10
